Time,TemperatureF,DewpointF,PressureIn,WindDirection,WindDirectionDegrees,WindSpeedMPH,WindSpeedGustMPH,Humidity,HourlyPrecipIn,Conditions,Clouds,dailyrainin,SoftwareType,DateUTC
2013-06-06 00:03:00,38.7,24.8,31.06,East,90,2.0,5.0,57,0.00,,,0.00,meteohub,2013-06-06 06:03:00,
2013-06-06 00:08:00,37.8,23.9,31.06,ENE,68,3.0,3.0,57,0.00,,,0.00,meteohub,2013-06-06 06:08:00,
2013-06-06 00:13:00,37.9,24.4,31.06,East,90,3.0,3.0,58,0.00,,,0.00,meteohub,2013-06-06 06:13:00,
2013-06-06 00:18:00,37.9,24.4,31.06,East,90,4.0,4.0,58,0.00,,,0.00,meteohub,2013-06-06 06:18:00,
2013-06-06 00:23:00,37.8,24.3,31.05,East,90,3.0,4.0,58,0.00,,,0.00,meteohub,2013-06-06 06:23:00,
2013-06-06 00:28:00,37.6,24.1,31.06,SE,135,2.0,4.0,58,0.00,,,0.00,meteohub,2013-06-06 06:28:00,
2013-06-06 00:33:00,37.2,22.1,31.06,NE,45,3.0,4.0,54,0.00,,,0.00,meteohub,2013-06-06 06:33:00,
2013-06-06 00:38:00,37.2,22.5,31.06,East,90,1.0,4.0,55,0.00,,,0.00,meteohub,2013-06-06 06:38:00,
2013-06-06 00:43:00,37.0,22.5,31.06,East,90,3.0,3.0,55,0.00,,,0.00,meteohub,2013-06-06 06:43:00,
2013-06-06 00:48:00,37.2,22.5,31.06,SE,135,2.0,3.0,55,0.00,,,0.00,meteohub,2013-06-06 06:48:00,
2013-06-06 00:53:00,37.0,22.5,31.06,NE,45,2.0,4.0,55,0.00,,,0.00,meteohub,2013-06-06 06:53:00,
2013-06-06 00:58:00,37.0,22.8,31.06,East,90,4.0,4.0,56,0.00,,,0.00,meteohub,2013-06-06 06:58:00,
2013-06-06 01:03:00,36.7,22.5,31.06,East,90,0.0,4.0,56,0.00,,,0.00,meteohub,2013-06-06 07:03:00,
2013-06-06 01:08:00,36.3,22.1,31.05,East,90,3.0,4.0,56,0.00,,,0.00,meteohub,2013-06-06 07:08:00,
2013-06-06 01:13:00,35.8,22.1,31.06,SE,135,2.0,4.0,57,0.00,,,0.00,meteohub,2013-06-06 07:13:00,
2013-06-06 01:18:00,35.4,22.5,31.05,East,90,3.0,4.0,59,0.00,,,0.00,meteohub,2013-06-06 07:18:00,
2013-06-06 01:24:00,35.2,22.3,31.05,SE,135,2.0,4.0,59,0.00,,,0.00,meteohub,2013-06-06 07:24:00,
2013-06-06 01:29:00,35.1,22.1,31.06,SE,135,3.0,4.0,59,0.00,,,0.00,meteohub,2013-06-06 07:29:00,
2013-06-06 01:34:00,35.4,23.0,31.05,South,180,1.0,4.0,60,0.00,,,0.00,meteohub,2013-06-06 07:34:00,
2013-06-06 01:39:00,35.2,22.3,31.05,South,180,1.0,4.0,59,0.00,,,0.00,meteohub,2013-06-06 07:39:00,
2013-06-06 01:44:00,34.9,22.5,31.06,North,0,2.0,3.0,60,0.00,,,0.00,meteohub,2013-06-06 07:44:00,
2013-06-06 01:49:00,34.7,22.6,31.05,East,90,2.0,3.0,61,0.00,,,0.00,meteohub,2013-06-06 07:49:00,
2013-06-06 01:54:00,34.5,22.5,31.05,SE,135,2.0,4.0,61,0.00,,,0.00,meteohub,2013-06-06 07:54:00,
2013-06-06 01:59:00,34.5,22.5,31.05,South,180,1.0,4.0,61,0.00,,,0.00,meteohub,2013-06-06 07:59:00,
2013-06-06 02:04:00,34.5,22.5,31.05,SW,225,1.0,4.0,61,0.00,,,0.00,meteohub,2013-06-06 08:04:00,
2013-06-06 02:09:00,34.7,22.6,31.05,SE,135,3.0,4.0,61,0.00,,,0.00,meteohub,2013-06-06 08:09:00,
2013-06-06 02:14:00,35.1,23.0,31.05,SE,135,2.0,4.0,61,0.00,,,0.00,meteohub,2013-06-06 08:14:00,
2013-06-06 02:19:00,35.4,23.4,31.05,East,90,0.0,4.0,61,0.00,,,0.00,meteohub,2013-06-06 08:19:00,
2013-06-06 02:24:00,35.2,23.2,31.05,East,90,4.0,4.0,61,0.00,,,0.00,meteohub,2013-06-06 08:24:00,
2013-06-06 02:29:00,34.7,22.3,31.05,SE,135,3.0,4.0,60,0.00,,,0.00,meteohub,2013-06-06 08:29:00,
2013-06-06 02:34:00,34.7,22.6,31.05,South,180,2.0,4.0,61,0.00,,,0.00,meteohub,2013-06-06 08:34:00,
2013-06-06 02:39:00,34.9,22.8,31.05,SE,135,2.0,4.0,61,0.00,,,0.00,meteohub,2013-06-06 08:39:00,
2013-06-06 02:44:00,34.9,22.8,31.05,SW,225,2.0,4.0,61,0.00,,,0.00,meteohub,2013-06-06 08:44:00,
2013-06-06 02:49:00,34.7,22.6,31.05,East,90,2.0,4.0,61,0.00,,,0.00,meteohub,2013-06-06 08:49:00,
2013-06-06 02:54:00,34.3,22.3,31.05,South,180,2.0,4.0,61,0.00,,,0.00,meteohub,2013-06-06 08:54:00,
2013-06-06 02:59:00,34.0,22.3,31.05,NW,315,0.0,3.0,62,0.00,,,0.00,meteohub,2013-06-06 08:59:00,
2013-06-06 03:04:00,33.8,22.1,31.05,South,180,4.0,4.0,62,0.00,,,0.00,meteohub,2013-06-06 09:04:00,
2013-06-06 03:09:00,34.5,23.2,31.05,SE,135,4.0,4.0,63,0.00,,,0.00,meteohub,2013-06-06 09:09:00,
2013-06-06 03:14:00,34.9,23.5,31.05,South,180,3.0,4.0,63,0.00,,,0.00,meteohub,2013-06-06 09:14:00,
2013-06-06 03:19:00,35.1,23.7,31.05,East,90,8.0,8.0,63,0.00,,,0.00,meteohub,2013-06-06 09:19:00,
2013-06-06 03:24:00,35.6,23.9,31.05,South,180,8.0,8.0,62,0.00,,,0.00,meteohub,2013-06-06 09:24:00,
2013-06-06 03:29:00,36.1,24.4,31.05,SE,135,6.0,8.0,62,0.00,,,0.00,meteohub,2013-06-06 09:29:00,
2013-06-06 03:34:00,36.5,24.3,31.05,SE,135,6.0,8.0,61,0.00,,,0.00,meteohub,2013-06-06 09:34:00,
2013-06-06 03:39:00,36.5,23.9,31.05,South,180,3.0,8.0,60,0.00,,,0.00,meteohub,2013-06-06 09:39:00,
2013-06-06 03:44:00,36.3,23.7,31.05,South,180,3.0,7.0,60,0.00,,,0.00,meteohub,2013-06-06 09:44:00,
2013-06-06 03:49:00,35.6,23.0,31.05,South,180,1.0,6.0,60,0.00,,,0.00,meteohub,2013-06-06 09:49:00,
2013-06-06 03:54:00,35.1,23.0,31.05,South,180,0.0,5.0,61,0.00,,,0.00,meteohub,2013-06-06 09:54:00,
2013-06-06 03:59:00,34.3,22.3,31.05,East,90,2.0,5.0,61,0.00,,,0.00,meteohub,2013-06-06 09:59:00,
2013-06-06 04:04:00,34.3,22.3,31.05,NE,45,3.0,3.0,61,0.00,,,0.00,meteohub,2013-06-06 10:04:00,
2013-06-06 04:09:00,33.1,21.6,31.05,East,90,2.0,3.0,62,0.00,,,0.00,meteohub,2013-06-06 10:09:00,
2013-06-06 04:14:00,32.9,21.7,31.06,East,90,1.0,3.0,63,0.00,,,0.00,meteohub,2013-06-06 10:14:00,
2013-06-06 04:19:00,32.7,21.6,31.05,East,90,3.0,3.0,63,0.00,,,0.00,meteohub,2013-06-06 10:19:00,
2013-06-06 04:24:00,32.9,22.1,31.05,SE,135,3.0,4.0,64,0.00,,,0.00,meteohub,2013-06-06 10:24:00,
2013-06-06 04:29:00,32.9,22.1,31.05,SE,135,0.0,4.0,64,0.00,,,0.00,meteohub,2013-06-06 10:29:00,
2013-06-06 04:34:00,32.7,21.9,31.05,West,270,1.0,4.0,64,0.00,,,0.00,meteohub,2013-06-06 10:34:00,
2013-06-06 04:40:00,32.4,21.6,31.05,West,270,0.0,4.0,64,0.00,,,0.00,meteohub,2013-06-06 10:40:00,
2013-06-06 04:45:00,32.4,21.6,31.05,SE,135,2.0,3.0,64,0.00,,,0.00,meteohub,2013-06-06 10:45:00,
2013-06-06 04:50:00,32.7,22.3,31.05,South,180,4.0,4.0,65,0.00,,,0.00,meteohub,2013-06-06 10:50:00,
2013-06-06 04:55:00,33.3,23.2,31.05,SE,135,6.0,6.0,66,0.00,,,0.00,meteohub,2013-06-06 10:55:00,
2013-06-06 05:00:00,34.2,24.1,31.05,SE,135,4.0,5.0,66,0.00,,,0.00,meteohub,2013-06-06 11:00:00,
2013-06-06 05:05:00,34.5,24.6,31.05,SE,135,7.0,7.0,67,0.00,,,0.00,meteohub,2013-06-06 11:05:00,
2013-06-06 05:10:00,34.7,24.1,31.05,East,90,4.0,8.0,65,0.00,,,0.00,meteohub,2013-06-06 11:10:00,
2013-06-06 05:15:00,34.3,23.0,31.05,SE,135,3.0,8.0,63,0.00,,,0.00,meteohub,2013-06-06 11:15:00,
2013-06-06 05:20:00,34.0,22.3,31.05,SE,135,2.0,8.0,62,0.00,,,0.00,meteohub,2013-06-06 11:20:00,
2013-06-06 05:25:00,33.6,22.5,31.05,NE,45,2.0,7.0,63,0.00,,,0.00,meteohub,2013-06-06 11:25:00,
2013-06-06 05:30:00,33.1,22.3,31.05,SE,135,2.0,4.0,64,0.00,,,0.00,meteohub,2013-06-06 11:30:00,
2013-06-06 05:35:00,32.7,21.9,31.05,North,0,2.0,4.0,64,0.00,,,0.00,meteohub,2013-06-06 11:35:00,
2013-06-06 05:40:00,32.7,21.9,31.05,South,180,2.0,4.0,64,0.00,,,0.00,meteohub,2013-06-06 11:40:00,
2013-06-06 05:45:00,32.4,21.9,31.06,NE,45,2.0,4.0,65,0.00,,,0.00,meteohub,2013-06-06 11:45:00,
2013-06-06 05:50:00,32.2,21.7,31.05,SE,135,6.0,6.0,65,0.00,,,0.00,meteohub,2013-06-06 11:50:00,
2013-06-06 05:55:00,32.4,22.3,31.05,South,180,2.0,4.0,66,0.00,,,0.00,meteohub,2013-06-06 11:55:00,
2013-06-06 06:00:00,32.5,22.5,31.06,South,180,6.0,6.0,66,0.00,,,0.00,meteohub,2013-06-06 12:00:00,
2013-06-06 06:05:00,32.5,22.5,31.06,South,180,6.0,6.0,66,0.00,,,0.00,meteohub,2013-06-06 12:05:00,
2013-06-06 06:10:00,32.9,22.8,31.06,SE,135,3.0,6.0,66,0.00,,,0.00,meteohub,2013-06-06 12:10:00,
2013-06-06 06:15:00,32.9,22.8,31.06,NW,315,2.0,6.0,66,0.00,,,0.00,meteohub,2013-06-06 12:15:00,
2013-06-06 06:20:00,32.9,22.8,31.06,NE,45,2.0,6.0,66,0.00,,,0.00,meteohub,2013-06-06 12:20:00,
2013-06-06 06:25:00,32.9,22.8,31.06,SE,135,0.0,3.0,66,0.00,,,0.00,meteohub,2013-06-06 12:25:00,
2013-06-06 06:30:00,32.7,22.6,31.06,NE,45,3.0,3.0,66,0.00,,,0.00,meteohub,2013-06-06 12:30:00,
2013-06-06 06:35:00,32.7,22.6,31.06,South,180,5.0,5.0,66,0.00,,,0.00,meteohub,2013-06-06 12:35:00,
2013-06-06 06:40:00,33.1,23.4,31.05,SE,135,2.0,5.0,67,0.00,,,0.00,meteohub,2013-06-06 12:40:00,
2013-06-06 06:45:00,33.4,23.7,31.06,SE,135,4.0,5.0,67,0.00,,,0.00,meteohub,2013-06-06 12:45:00,
2013-06-06 06:50:00,33.4,23.4,31.06,East,90,3.0,5.0,66,0.00,,,0.00,meteohub,2013-06-06 12:50:00,
2013-06-06 06:55:00,33.1,23.0,31.06,East,90,3.0,4.0,66,0.00,,,0.00,meteohub,2013-06-06 12:55:00,
2013-06-06 07:00:00,33.1,23.0,31.06,South,180,2.0,4.0,66,0.00,,,0.00,meteohub,2013-06-06 13:00:00,
2013-06-06 07:05:00,33.4,23.4,31.06,SE,135,3.0,4.0,66,0.00,,,0.00,meteohub,2013-06-06 13:05:00,
2013-06-06 07:10:00,34.3,23.7,31.05,SE,135,3.0,4.0,65,0.00,,,0.00,meteohub,2013-06-06 13:10:00,
2013-06-06 07:15:00,35.2,24.3,31.05,SE,135,3.0,4.0,64,0.00,,,0.00,meteohub,2013-06-06 13:15:00,
2013-06-06 07:20:00,36.0,24.3,31.05,SE,135,2.0,4.0,62,0.00,,,0.00,meteohub,2013-06-06 13:20:00,
2013-06-06 07:25:00,36.9,24.6,31.06,South,180,4.0,4.0,61,0.00,,,0.00,meteohub,2013-06-06 13:25:00,
2013-06-06 07:30:00,37.2,25.0,31.05,South,180,5.0,6.0,61,0.00,,,0.00,meteohub,2013-06-06 13:30:00,
2013-06-06 07:35:00,37.4,26.8,31.05,South,180,4.0,6.0,65,0.00,,,0.00,meteohub,2013-06-06 13:35:00,
2013-06-06 07:40:00,38.1,27.3,31.05,South,180,6.0,6.0,65,0.00,,,0.00,meteohub,2013-06-06 13:40:00,
2013-06-06 07:45:00,39.7,28.6,31.05,South,180,3.0,6.0,64,0.00,,,0.00,meteohub,2013-06-06 13:45:00,
2013-06-06 07:50:00,41.5,29.8,31.06,SE,135,3.0,6.0,63,0.00,,,0.00,meteohub,2013-06-06 13:50:00,
2013-06-06 07:55:00,43.0,30.4,31.05,SE,135,3.0,6.0,61,0.00,,,0.00,meteohub,2013-06-06 13:55:00,
2013-06-06 08:00:00,44.4,30.9,31.05,SW,225,6.0,6.0,59,0.00,,,0.00,meteohub,2013-06-06 14:00:00,
2013-06-06 08:05:00,44.4,30.9,31.05,SW,225,6.0,6.0,59,0.00,,,0.00,meteohub,2013-06-06 14:05:00,
2013-06-06 08:10:00,46.4,30.7,31.05,South,180,4.0,6.0,54,0.00,,,0.00,meteohub,2013-06-06 14:10:00,
2013-06-06 08:15:00,47.5,31.3,31.05,South,180,5.0,6.0,53,0.00,,,0.00,meteohub,2013-06-06 14:15:00,
2013-06-06 08:20:00,48.6,31.3,31.05,SW,225,6.0,7.0,51,0.00,,,0.00,meteohub,2013-06-06 14:20:00,
2013-06-06 08:25:00,49.5,30.6,31.05,South,180,4.0,7.0,48,0.00,,,0.00,meteohub,2013-06-06 14:25:00,
2013-06-06 08:30:00,50.4,30.4,31.05,South,180,4.0,7.0,46,0.00,,,0.00,meteohub,2013-06-06 14:30:00,
2013-06-06 08:35:00,51.1,29.8,31.05,SE,135,4.0,6.0,44,0.00,,,0.00,meteohub,2013-06-06 14:35:00,
2013-06-06 08:40:00,52.0,30.2,31.05,SW,225,5.0,5.0,43,0.00,,,0.00,meteohub,2013-06-06 14:40:00,
2013-06-06 08:45:00,52.9,30.4,31.05,South,180,4.0,7.0,42,0.00,,,0.00,meteohub,2013-06-06 14:45:00,
2013-06-06 08:50:00,53.6,29.8,31.05,South,180,5.0,7.0,40,0.00,,,0.00,meteohub,2013-06-06 14:50:00,
2013-06-06 08:55:00,54.1,29.7,31.04,South,180,6.0,7.0,39,0.00,,,0.00,meteohub,2013-06-06 14:55:00,
2013-06-06 09:00:00,54.7,30.2,31.05,SSW,203,5.0,7.0,39,0.00,,,0.00,meteohub,2013-06-06 15:00:00,
2013-06-06 09:05:00,55.4,29.5,31.05,South,180,4.0,7.0,37,0.00,,,0.00,meteohub,2013-06-06 15:05:00,
2013-06-06 09:10:00,56.1,29.5,31.05,SW,225,4.0,6.0,36,0.00,,,0.00,meteohub,2013-06-06 15:10:00,
2013-06-06 09:15:00,56.8,29.5,31.05,SW,225,4.0,6.0,35,0.00,,,0.00,meteohub,2013-06-06 15:15:00,
2013-06-06 09:20:00,57.7,28.8,31.04,South,180,4.0,6.0,33,0.00,,,0.00,meteohub,2013-06-06 15:20:00,
2013-06-06 09:25:00,58.5,28.8,31.04,East,90,2.0,4.0,32,0.00,,,0.00,meteohub,2013-06-06 15:25:00,
2013-06-06 09:30:00,59.0,28.4,31.04,SW,225,2.0,4.0,31,0.00,,,0.00,meteohub,2013-06-06 15:30:00,
2013-06-06 09:36:00,59.7,27.3,31.04,NNW,338,1.0,4.0,29,0.00,,,0.00,meteohub,2013-06-06 15:36:00,
2013-06-06 09:41:00,60.6,29.8,31.04,SE,135,2.0,2.0,31,0.00,,,0.00,meteohub,2013-06-06 15:41:00,
2013-06-06 09:46:00,61.2,28.6,31.04,West,270,3.0,3.0,29,0.00,,,0.00,meteohub,2013-06-06 15:46:00,
2013-06-06 09:51:00,61.7,27.3,31.03,West,270,2.0,5.0,27,0.00,,,0.00,meteohub,2013-06-06 15:51:00,
2013-06-06 09:56:00,62.1,26.8,31.04,North,0,7.0,9.0,26,0.00,,,0.00,meteohub,2013-06-06 15:56:00,
2013-06-06 10:01:00,62.1,26.8,31.04,North,0,6.0,9.0,26,0.00,,,0.00,meteohub,2013-06-06 16:01:00,
2013-06-06 10:06:00,62.1,26.8,31.03,North,0,6.0,9.0,26,0.00,,,0.00,meteohub,2013-06-06 16:06:00,
2013-06-06 10:11:00,62.8,28.2,31.03,East,90,6.0,8.0,27,0.00,,,0.00,meteohub,2013-06-06 16:11:00,
2013-06-06 10:17:00,63.1,25.7,31.03,NW,315,8.0,8.0,24,0.00,,,0.00,meteohub,2013-06-06 16:17:00,
2013-06-06 10:22:00,63.1,26.8,31.03,NW,315,11.0,14.0,25,0.00,,,0.00,meteohub,2013-06-06 16:22:00,
2013-06-06 10:27:00,63.3,27.0,31.03,SW,225,7.0,14.0,25,0.00,,,0.00,meteohub,2013-06-06 16:27:00,
2013-06-06 10:32:00,63.5,27.0,31.03,NE,45,8.0,14.0,25,0.00,,,0.00,meteohub,2013-06-06 16:32:00,
2013-06-06 10:37:00,63.5,27.0,31.03,North,0,6.0,12.0,25,0.00,,,0.00,meteohub,2013-06-06 16:37:00,
2013-06-06 10:42:00,63.9,26.4,31.03,NW,315,7.0,12.0,24,0.00,,,0.00,meteohub,2013-06-06 16:42:00,
2013-06-06 10:47:00,63.9,26.4,31.03,East,90,10.0,12.0,24,0.00,,,0.00,meteohub,2013-06-06 16:47:00,
2013-06-06 10:52:00,64.0,26.6,31.03,North,0,8.0,12.0,24,0.00,,,0.00,meteohub,2013-06-06 16:52:00,
2013-06-06 10:57:00,64.2,27.7,31.03,North,0,9.0,11.0,25,0.00,,,0.00,meteohub,2013-06-06 16:57:00,
2013-06-06 11:03:00,64.9,28.2,31.03,NW,315,4.0,11.0,25,0.00,,,0.00,meteohub,2013-06-06 17:03:00,
2013-06-06 11:08:00,64.9,28.2,31.03,WNW,293,11.0,11.0,25,0.00,,,0.00,meteohub,2013-06-06 17:08:00,
2013-06-06 11:13:00,65.1,29.3,31.03,NW,315,9.0,11.0,26,0.00,,,0.00,meteohub,2013-06-06 17:13:00,
2013-06-06 11:18:00,65.3,27.5,31.03,SW,225,4.0,11.0,24,0.00,,,0.00,meteohub,2013-06-06 17:18:00,
2013-06-06 11:23:00,65.5,26.8,31.03,NE,45,4.0,11.0,23,0.00,,,0.00,meteohub,2013-06-06 17:23:00,
2013-06-06 11:28:00,66.0,29.1,31.03,NW,315,8.0,11.0,25,0.00,,,0.00,meteohub,2013-06-06 17:28:00,
2013-06-06 11:33:00,66.2,27.3,31.03,North,0,12.0,12.0,23,0.00,,,0.00,meteohub,2013-06-06 17:33:00,
2013-06-06 11:38:00,66.4,28.4,31.03,West,270,11.0,12.0,24,0.00,,,0.00,meteohub,2013-06-06 17:38:00,
2013-06-06 11:43:00,66.7,28.8,31.04,NW,315,7.0,12.0,24,0.00,,,0.00,meteohub,2013-06-06 17:43:00,
2013-06-06 11:48:00,66.9,27.9,31.04,North,0,10.0,13.0,23,0.00,,,0.00,meteohub,2013-06-06 17:48:00,
2013-06-06 11:53:00,66.9,26.8,31.04,North,0,7.0,13.0,22,0.00,,,0.00,meteohub,2013-06-06 17:53:00,
2013-06-06 11:58:00,66.6,27.7,31.04,North,0,6.0,13.0,23,0.00,,,0.00,meteohub,2013-06-06 17:58:00,
2013-06-06 12:03:00,66.6,28.6,31.03,North,0,5.0,16.0,24,0.00,,,0.00,meteohub,2013-06-06 18:03:00,
2013-06-06 12:08:00,66.9,28.9,31.03,North,0,5.0,16.0,24,0.00,,,0.00,meteohub,2013-06-06 18:08:00,
2013-06-06 12:13:00,67.1,28.0,31.04,West,270,7.0,16.0,23,0.00,,,0.00,meteohub,2013-06-06 18:13:00,
2013-06-06 12:18:00,67.3,28.2,31.03,NW,315,8.0,10.0,23,0.00,,,0.00,meteohub,2013-06-06 18:18:00,
2013-06-06 12:23:00,67.1,28.0,31.03,NW,315,11.0,11.0,23,0.00,,,0.00,meteohub,2013-06-06 18:23:00,
2013-06-06 12:28:00,66.9,27.9,31.03,SE,135,6.0,11.0,23,0.00,,,0.00,meteohub,2013-06-06 18:28:00,
2013-06-06 12:33:00,66.7,27.7,31.03,North,0,5.0,11.0,23,0.00,,,0.00,meteohub,2013-06-06 18:33:00,
2013-06-06 12:38:00,66.9,28.9,31.03,West,270,5.0,11.0,24,0.00,,,0.00,meteohub,2013-06-06 18:38:00,
2013-06-06 12:43:00,67.5,28.4,31.03,NE,45,11.0,11.0,23,0.00,,,0.00,meteohub,2013-06-06 18:43:00,
2013-06-06 12:48:00,67.6,27.5,31.03,NW,315,8.0,11.0,22,0.00,,,0.00,meteohub,2013-06-06 18:48:00,
2013-06-06 12:53:00,68.0,27.7,31.03,East,90,4.0,11.0,22,0.00,,,0.00,meteohub,2013-06-06 18:53:00,
2013-06-06 12:58:00,68.0,27.7,31.03,North,0,13.0,13.0,22,0.00,,,0.00,meteohub,2013-06-06 18:58:00,
2013-06-06 13:03:00,67.5,28.4,31.03,NE,45,7.0,15.0,23,0.00,,,0.00,meteohub,2013-06-06 19:03:00,
2013-06-06 13:08:00,67.3,27.1,31.03,West,270,9.0,15.0,22,0.00,,,0.00,meteohub,2013-06-06 19:08:00,
2013-06-06 13:13:00,66.2,26.2,31.03,North,0,12.0,15.0,22,0.00,,,0.00,meteohub,2013-06-06 19:13:00,
2013-06-06 13:18:00,66.0,27.1,31.03,NW,315,6.0,12.0,23,0.00,,,0.00,meteohub,2013-06-06 19:18:00,
2013-06-06 13:23:00,66.9,27.9,31.03,North,0,4.0,12.0,23,0.00,,,0.00,meteohub,2013-06-06 19:23:00,
2013-06-06 13:28:00,67.6,27.5,31.03,NW,315,7.0,12.0,22,0.00,,,0.00,meteohub,2013-06-06 19:28:00,
2013-06-06 13:33:00,68.5,28.2,31.03,ENE,68,7.0,10.0,22,0.00,,,0.00,meteohub,2013-06-06 19:33:00,
2013-06-06 13:34:00,68.7,28.4,31.03,NE,45,16.0,16.0,22,0.00,,,0.00,meteohub,2013-06-06 19:34:00,
2013-06-06 13:39:00,69.4,27.9,31.03,NE,45,8.0,54.0,21,0.00,,,0.00,meteohub,2013-06-06 19:39:00,
2013-06-06 13:44:00,69.1,26.2,31.03,North,0,8.0,54.0,20,0.00,,,0.00,meteohub,2013-06-06 19:44:00,
2013-06-06 13:49:00,68.0,25.3,31.03,NE,45,8.0,54.0,20,0.00,,,0.00,meteohub,2013-06-06 19:49:00,
2013-06-06 13:54:00,67.3,26.1,31.03,NE,45,8.0,11.0,21,0.00,,,0.00,meteohub,2013-06-06 19:54:00,
2013-06-06 13:59:00,68.2,26.8,31.03,North,0,8.0,8.0,21,0.00,,,0.00,meteohub,2013-06-06 19:59:00,
2013-06-06 14:04:00,68.2,26.8,31.03,North,0,8.0,13.0,21,0.00,,,0.00,meteohub,2013-06-06 20:04:00,
2013-06-06 14:10:00,66.9,24.6,31.02,NW,315,8.0,13.0,20,0.00,,,0.00,meteohub,2013-06-06 20:10:00,
2013-06-06 14:15:00,66.7,26.6,31.03,NE,45,8.0,13.0,22,0.00,,,0.00,meteohub,2013-06-06 20:15:00,
2013-06-06 14:20:00,68.4,28.0,31.02,North,0,6.0,9.0,22,0.00,,,0.00,meteohub,2013-06-06 20:20:00,
2013-06-06 14:25:00,69.1,26.2,31.02,SW,225,4.0,9.0,20,0.00,,,0.00,meteohub,2013-06-06 20:25:00,
2013-06-06 14:30:00,68.5,25.9,31.02,NW,315,8.0,10.0,20,0.00,,,0.00,meteohub,2013-06-06 20:30:00,
2013-06-06 14:35:00,67.5,26.2,31.02,NW,315,7.0,10.0,21,0.00,,,0.00,meteohub,2013-06-06 20:35:00,
2013-06-06 14:40:00,66.6,27.7,31.03,NE,45,8.0,11.0,23,0.00,,,0.00,meteohub,2013-06-06 20:40:00,
2013-06-06 14:45:00,66.9,30.9,31.02,North,0,8.0,11.0,26,0.00,,,0.00,meteohub,2013-06-06 20:45:00,
2013-06-06 14:50:00,67.5,27.3,31.02,NE,45,6.0,11.0,22,0.00,,,0.00,meteohub,2013-06-06 20:50:00,
2013-06-06 14:55:00,66.6,26.6,31.02,North,0,3.0,9.0,22,0.00,,,0.00,meteohub,2013-06-06 20:55:00,
2013-06-06 15:00:00,66.2,26.2,31.02,NE,45,7.0,8.0,22,0.00,,,0.00,meteohub,2013-06-06 21:00:00,
2013-06-06 15:05:00,66.4,26.4,31.02,North,0,3.0,9.0,22,0.00,,,0.00,meteohub,2013-06-06 21:05:00,
2013-06-06 15:10:00,66.9,26.8,31.02,NNE,23,6.0,11.0,22,0.00,,,0.00,meteohub,2013-06-06 21:10:00,
2013-06-06 15:15:00,68.0,26.6,31.02,NW,315,10.0,12.0,21,0.00,,,0.00,meteohub,2013-06-06 21:15:00,
2013-06-06 15:20:00,68.9,27.3,31.01,NE,45,4.0,12.0,21,0.00,,,0.00,meteohub,2013-06-06 21:20:00,
2013-06-06 15:25:00,68.9,27.3,31.01,West,270,6.0,12.0,21,0.00,,,0.00,meteohub,2013-06-06 21:25:00,
2013-06-06 15:30:00,69.4,27.9,31.01,NE,45,11.0,11.0,21,0.00,,,0.00,meteohub,2013-06-06 21:30:00,
2013-06-06 15:35:00,70.3,27.3,31.01,SE,135,8.0,11.0,20,0.00,,,0.00,meteohub,2013-06-06 21:35:00,
2013-06-06 15:40:00,71.1,26.8,31.01,North,0,8.0,11.0,19,0.00,,,0.00,meteohub,2013-06-06 21:40:00,
2013-06-06 15:45:00,70.0,23.2,31.01,NNE,23,6.0,11.0,17,0.00,,,0.00,meteohub,2013-06-06 21:45:00,
2013-06-06 15:50:00,68.9,25.0,31.00,North,0,5.0,10.0,19,0.00,,,0.00,meteohub,2013-06-06 21:50:00,
2013-06-06 15:55:00,69.1,26.2,31.00,NW,315,9.0,10.0,20,0.00,,,0.00,meteohub,2013-06-06 21:55:00,
2013-06-06 16:00:00,68.5,25.9,31.00,NE,45,8.0,9.0,20,0.00,,,0.00,meteohub,2013-06-06 22:00:00,
2013-06-06 16:05:00,68.5,25.9,31.00,NE,45,8.0,9.0,20,0.00,,,0.00,meteohub,2013-06-06 22:05:00,
2013-06-06 16:10:00,69.8,25.7,31.01,North,0,11.0,11.0,19,0.00,,,0.00,meteohub,2013-06-06 22:10:00,
2013-06-06 16:15:00,70.9,26.6,31.00,NW,315,5.0,11.0,19,0.00,,,0.00,meteohub,2013-06-06 22:15:00,
2013-06-06 16:20:00,71.1,25.3,31.01,NE,45,8.0,12.0,18,0.00,,,0.00,meteohub,2013-06-06 22:20:00,
2013-06-06 16:25:00,70.2,23.4,31.00,NW,315,3.0,12.0,17,0.00,,,0.00,meteohub,2013-06-06 22:25:00,
2013-06-06 16:30:00,70.5,26.2,31.01,North,0,6.0,12.0,19,0.00,,,0.00,meteohub,2013-06-06 22:30:00,
2013-06-06 16:35:00,71.6,24.4,31.00,West,270,4.0,12.0,17,0.00,,,0.00,meteohub,2013-06-06 22:35:00,
2013-06-06 16:40:00,70.9,23.9,31.00,North,0,6.0,8.0,17,0.00,,,0.00,meteohub,2013-06-06 22:40:00,
2013-06-06 16:45:00,70.0,23.2,31.00,NW,315,10.0,10.0,17,0.00,,,0.00,meteohub,2013-06-06 22:45:00,
2013-06-06 16:50:00,69.8,23.0,31.00,North,0,5.0,10.0,17,0.00,,,0.00,meteohub,2013-06-06 22:50:00,
2013-06-06 16:55:00,69.6,24.3,31.00,East,90,8.0,10.0,18,0.00,,,0.00,meteohub,2013-06-06 22:55:00,
2013-06-06 17:00:00,68.4,23.2,31.00,NE,45,8.0,10.0,18,0.00,,,0.00,meteohub,2013-06-06 23:00:00,
2013-06-06 17:05:00,67.5,25.0,31.00,North,0,8.0,9.0,20,0.00,,,0.00,meteohub,2013-06-06 23:05:00,
2013-06-06 17:10:00,66.7,25.5,31.00,NE,45,8.0,11.0,21,0.00,,,0.00,meteohub,2013-06-06 23:10:00,
2013-06-06 17:15:00,66.2,25.2,31.00,NW,315,4.0,11.0,21,0.00,,,0.00,meteohub,2013-06-06 23:15:00,
2013-06-06 17:20:00,66.7,25.5,31.00,North,0,6.0,11.0,21,0.00,,,0.00,meteohub,2013-06-06 23:20:00,
2013-06-06 17:25:00,68.5,25.9,31.00,East,90,8.0,10.0,20,0.00,,,0.00,meteohub,2013-06-06 23:25:00,
2013-06-06 17:30:00,69.8,25.7,31.00,SE,135,10.0,10.0,19,0.00,,,0.00,meteohub,2013-06-06 23:30:00,
2013-06-06 17:36:00,68.7,23.5,31.00,North,0,8.0,12.0,18,0.00,,,0.00,meteohub,2013-06-06 23:36:00,
2013-06-06 17:41:00,67.6,25.2,31.00,North,0,6.0,12.0,20,0.00,,,0.00,meteohub,2013-06-06 23:41:00,
2013-06-06 17:46:00,67.1,25.9,31.00,NNW,338,8.0,12.0,21,0.00,,,0.00,meteohub,2013-06-06 23:46:00,
2013-06-06 17:51:00,66.9,25.7,31.00,NW,315,7.0,8.0,21,0.00,,,0.00,meteohub,2013-06-06 23:51:00,
2013-06-06 17:56:00,66.4,25.3,31.00,North,0,5.0,8.0,21,0.00,,,0.00,meteohub,2013-06-06 23:56:00,
2013-06-06 18:01:00,66.0,26.1,31.00,North,0,8.0,8.0,22,0.00,,,0.00,meteohub,2013-06-07 00:01:00,
2013-06-06 18:06:00,66.0,26.1,31.00,North,0,8.0,8.0,22,0.00,,,0.00,meteohub,2013-06-07 00:06:00,
2013-06-06 18:11:00,65.3,25.5,31.00,North,0,6.0,8.0,22,0.00,,,0.00,meteohub,2013-06-07 00:11:00,
2013-06-06 18:16:00,65.1,25.3,31.00,NW,315,17.0,17.0,22,0.00,,,0.00,meteohub,2013-06-07 00:16:00,
2013-06-06 18:21:00,64.8,25.0,31.00,North,0,8.0,17.0,22,0.00,,,0.00,meteohub,2013-06-07 00:21:00,
2013-06-06 18:26:00,64.2,22.3,31.01,NW,315,11.0,23.0,20,0.00,,,0.00,meteohub,2013-06-07 00:26:00,
2013-06-06 18:33:00,63.7,25.2,31.01,South,180,5.0,23.0,23,0.00,,,0.00,meteohub,2013-06-07 00:33:00,
2013-06-06 18:38:00,63.5,25.0,31.02,NNW,338,8.0,23.0,23,0.00,,,0.00,meteohub,2013-06-07 00:38:00,
2013-06-06 18:43:00,63.3,24.8,31.02,North,0,4.0,12.0,23,0.00,,,0.00,meteohub,2013-06-07 00:43:00,
2013-06-06 18:48:00,63.1,26.8,31.02,SE,135,4.0,9.0,25,0.00,,,0.00,meteohub,2013-06-07 00:48:00,
2013-06-06 18:53:00,62.6,27.1,31.02,North,0,4.0,9.0,26,0.00,,,0.00,meteohub,2013-06-07 00:53:00,
2013-06-06 18:58:00,62.1,28.6,31.02,NE,45,4.0,10.0,28,0.00,,,0.00,meteohub,2013-06-07 00:58:00,
2013-06-06 19:03:00,61.7,29.1,31.02,North,0,4.0,10.0,29,0.00,,,0.00,meteohub,2013-06-07 01:03:00,
2013-06-06 19:08:00,61.5,28.9,31.03,North,0,5.0,10.0,29,0.00,,,0.00,meteohub,2013-06-07 01:08:00,
2013-06-06 19:13:00,61.3,28.8,31.03,NW,315,3.0,6.0,29,0.00,,,0.00,meteohub,2013-06-07 01:13:00,
2013-06-06 19:18:00,61.3,28.8,31.03,NW,315,2.0,6.0,29,0.00,,,0.00,meteohub,2013-06-07 01:18:00,
2013-06-06 19:23:00,61.3,28.8,31.03,NW,315,7.0,7.0,29,0.00,,,0.00,meteohub,2013-06-07 01:23:00,
2013-06-06 19:28:00,61.2,29.5,31.04,SW,225,4.0,15.0,30,0.00,,,0.00,meteohub,2013-06-07 01:28:00,
2013-06-06 19:33:00,60.4,31.3,31.03,South,180,9.0,15.0,33,0.00,,,0.00,meteohub,2013-06-07 01:33:00,
2013-06-06 19:38:00,60.3,29.5,31.03,NE,45,2.0,15.0,31,0.00,,,0.00,meteohub,2013-06-07 01:38:00,
2013-06-06 19:43:00,60.1,29.3,31.03,SE,135,2.0,15.0,31,0.00,,,0.00,meteohub,2013-06-07 01:43:00,
2013-06-06 19:48:00,59.9,29.1,31.03,SE,135,4.0,11.0,31,0.00,,,0.00,meteohub,2013-06-07 01:48:00,
2013-06-06 19:53:00,59.7,28.9,31.04,South,180,3.0,7.0,31,0.00,,,0.00,meteohub,2013-06-07 01:53:00,
2013-06-06 19:59:00,59.5,29.7,31.04,NW,315,3.0,6.0,32,0.00,,,0.00,meteohub,2013-06-07 01:59:00,
2013-06-06 20:04:00,59.5,29.7,31.04,North,0,2.0,6.0,32,0.00,,,0.00,meteohub,2013-06-07 02:04:00,
2013-06-06 20:09:00,59.0,30.7,31.04,South,180,4.0,5.0,34,0.00,,,0.00,meteohub,2013-06-07 02:09:00,
2013-06-06 20:14:00,58.3,31.5,31.05,South,180,2.0,3.0,36,0.00,,,0.00,meteohub,2013-06-07 02:14:00,
2013-06-06 20:19:00,57.7,31.6,31.04,South,180,2.0,4.0,37,0.00,,,0.00,meteohub,2013-06-07 02:19:00,
2013-06-06 20:24:00,57.2,31.8,31.05,ESE,113,3.0,6.0,38,0.00,,,0.00,meteohub,2013-06-07 02:24:00,
2013-06-06 20:29:00,56.7,32.5,31.05,East,90,3.0,6.0,40,0.00,,,0.00,meteohub,2013-06-07 02:29:00,
2013-06-06 20:34:00,56.3,32.9,31.05,SE,135,4.0,6.0,41,0.00,,,0.00,meteohub,2013-06-07 02:34:00,
2013-06-06 20:39:00,55.9,33.3,31.05,SE,135,3.0,4.0,42,0.00,,,0.00,meteohub,2013-06-07 02:39:00,
2013-06-06 20:44:00,55.4,32.7,31.05,East,90,4.0,4.0,42,0.00,,,0.00,meteohub,2013-06-07 02:44:00,
2013-06-06 20:49:00,54.7,32.0,31.05,East,90,3.0,4.0,42,0.00,,,0.00,meteohub,2013-06-07 02:49:00,
2013-06-06 20:54:00,54.0,32.5,31.06,East,90,3.0,4.0,44,0.00,,,0.00,meteohub,2013-06-07 02:54:00,
2013-06-06 20:59:00,53.8,32.4,31.06,ESE,113,3.0,4.0,44,0.00,,,0.00,meteohub,2013-06-07 02:59:00,
2013-06-06 21:04:00,53.8,32.9,31.05,East,90,3.0,4.0,45,0.00,,,0.00,meteohub,2013-06-07 03:04:00,
2013-06-06 21:09:00,53.8,33.4,31.05,SE,135,3.0,3.0,46,0.00,,,0.00,meteohub,2013-06-07 03:09:00,
2013-06-06 21:14:00,53.8,33.4,31.05,South,180,3.0,4.0,46,0.00,,,0.00,meteohub,2013-06-07 03:14:00,
2013-06-06 21:19:00,53.8,34.0,31.05,SE,135,2.0,4.0,47,0.00,,,0.00,meteohub,2013-06-07 03:19:00,
2013-06-06 21:24:00,53.6,33.8,31.06,East,90,4.0,4.0,47,0.00,,,0.00,meteohub,2013-06-07 03:24:00,
2013-06-06 21:29:00,52.9,34.2,31.07,SE,135,3.0,4.0,49,0.00,,,0.00,meteohub,2013-06-07 03:29:00,
2013-06-06 21:34:00,52.3,33.8,31.06,East,90,4.0,4.0,49,0.00,,,0.00,meteohub,2013-06-07 03:34:00,
2013-06-06 21:39:00,52.0,33.4,31.07,East,90,3.0,4.0,49,0.00,,,0.00,meteohub,2013-06-07 03:39:00,
2013-06-06 21:44:00,51.6,34.2,31.07,East,90,4.0,4.0,51,0.00,,,0.00,meteohub,2013-06-07 03:44:00,
2013-06-06 21:49:00,51.1,33.6,31.07,SE,135,2.0,4.0,51,0.00,,,0.00,meteohub,2013-06-07 03:49:00,
2013-06-06 21:54:00,50.9,33.4,31.07,East,90,3.0,4.0,51,0.00,,,0.00,meteohub,2013-06-07 03:54:00,
2013-06-06 21:59:00,50.9,33.4,31.07,East,90,1.0,4.0,51,0.00,,,0.00,meteohub,2013-06-07 03:59:00,
2013-06-06 22:01:00,50.9,33.4,31.07,East,90,2.0,4.0,51,0.00,,,0.00,meteohub,2013-06-07 04:01:00,
2013-06-06 22:02:00,50.9,33.4,31.07,East,90,2.0,4.0,51,0.00,,,0.00,meteohub,2013-06-07 04:02:00,
2013-06-06 22:07:00,50.9,33.4,31.07,East,90,2.0,4.0,51,0.00,,,0.00,meteohub,2013-06-07 04:07:00,
2013-06-06 22:12:00,51.3,33.8,31.07,SE,135,2.0,3.0,51,0.00,,,0.00,meteohub,2013-06-07 04:12:00,
2013-06-06 22:17:00,51.1,34.0,31.07,East,90,2.0,2.0,52,0.00,,,0.00,meteohub,2013-06-07 04:17:00,
2013-06-06 22:22:00,50.7,33.8,31.07,East,90,2.0,2.0,52,0.00,,,0.00,meteohub,2013-06-07 04:22:00,
2013-06-06 22:27:00,50.4,33.8,31.07,SSW,203,3.0,3.0,53,0.00,,,0.00,meteohub,2013-06-07 04:27:00,
2013-06-06 22:32:00,50.2,33.3,31.07,SE,135,4.0,4.0,52,0.00,,,0.00,meteohub,2013-06-07 04:32:00,
2013-06-06 22:37:00,50.2,33.3,31.07,SE,135,4.0,5.0,52,0.00,,,0.00,meteohub,2013-06-07 04:37:00,
2013-06-06 22:42:00,50.2,33.3,31.07,South,180,6.0,6.0,52,0.00,,,0.00,meteohub,2013-06-07 04:42:00,
2013-06-06 22:47:00,50.4,33.4,31.07,SE,135,5.0,9.0,52,0.00,,,0.00,meteohub,2013-06-07 04:47:00,
2013-06-06 22:52:00,50.5,33.6,31.07,South,180,5.0,9.0,52,0.00,,,0.00,meteohub,2013-06-07 04:52:00,
2013-06-06 22:57:00,50.7,33.8,31.07,SE,135,4.0,9.0,52,0.00,,,0.00,meteohub,2013-06-07 04:57:00,
2013-06-06 23:02:00,50.5,33.6,31.07,SE,135,5.0,7.0,52,0.00,,,0.00,meteohub,2013-06-07 05:02:00,
2013-06-06 23:07:00,50.5,33.6,31.07,South,180,3.0,6.0,52,0.00,,,0.00,meteohub,2013-06-07 05:07:00,
2013-06-06 23:12:00,50.0,33.1,31.07,SE,135,5.0,5.0,52,0.00,,,0.00,meteohub,2013-06-07 05:12:00,
2013-06-06 23:17:00,49.8,33.8,31.07,SE,135,7.0,7.0,54,0.00,,,0.00,meteohub,2013-06-07 05:17:00,
2013-06-06 23:22:00,50.2,34.2,31.07,SE,135,4.0,8.0,54,0.00,,,0.00,meteohub,2013-06-07 05:22:00,
2013-06-06 23:27:00,50.2,34.2,31.07,SE,135,5.0,8.0,54,0.00,,,0.00,meteohub,2013-06-07 05:27:00,
2013-06-06 23:32:00,50.2,34.2,31.07,East,90,4.0,8.0,54,0.00,,,0.00,meteohub,2013-06-07 05:32:00,
2013-06-06 23:37:00,49.8,34.3,31.07,SE,135,4.0,8.0,55,0.00,,,0.00,meteohub,2013-06-07 05:37:00,
2013-06-06 23:42:00,49.3,33.8,31.07,SE,135,4.0,5.0,55,0.00,,,0.00,meteohub,2013-06-07 05:42:00,
2013-06-06 23:48:00,48.7,33.8,31.07,SE,135,3.0,5.0,56,0.00,,,0.00,meteohub,2013-06-07 05:48:00,
2013-06-06 23:53:00,48.6,33.6,31.06,SE,135,3.0,5.0,56,0.00,,,0.00,meteohub,2013-06-07 05:53:00,
2013-06-06 23:58:00,48.0,34.0,31.06,East,90,4.0,5.0,58,0.00,,,0.00,meteohub,2013-06-07 05:58:00,